sensor_id;sensor_type;location;lat;lon;timestamp;P1;durP1;ratioP1;P2;durP2;ratioP2
74926;SDS011;63488;48.092;-1.640;2024-01-07T00:00:33;5.45;;;2.90;;
74926;SDS011;63488;48.092;-1.640;2024-01-07T00:02:58;7.78;;;3.70;;
74926;SDS011;63488;48.092;-1.640;2024-01-07T00:05:24;9.90;;;3.40;;
74926;SDS011;63488;48.092;-1.640;2024-01-07T00:07:49;7.28;;;3.70;;
74926;SDS011;63488;48.092;-1.640;2024-01-07T00:10:16;5.78;;;3.40;;
74926;SDS011;63488;48.092;-1.640;2024-01-07T00:12:41;8.98;;;5.57;;
74926;SDS011;63488;48.092;-1.640;2024-01-07T00:15:06;8.13;;;4.88;;
74926;SDS011;63488;48.092;-1.640;2024-01-07T00:17:32;7.15;;;3.17;;
74926;SDS011;63488;48.092;-1.640;2024-01-07T00:19:57;6.43;;;3.15;;
74926;SDS011;63488;48.092;-1.640;2024-01-07T00:22:22;5.65;;;2.65;;
74926;SDS011;63488;48.092;-1.640;2024-01-07T00:24:48;6.93;;;2.70;;
74926;SDS011;63488;48.092;-1.640;2024-01-07T00:27:13;4.82;;;2.80;;
74926;SDS011;63488;48.092;-1.640;2024-01-07T00:29:38;7.25;;;3.38;;
74926;SDS011;63488;48.092;-1.640;2024-01-07T00:32:04;6.35;;;2.50;;
74926;SDS011;63488;48.092;-1.640;2024-01-07T00:34:29;7.47;;;3.83;;
74926;SDS011;63488;48.092;-1.640;2024-01-07T00:36:54;7.22;;;3.83;;
74926;SDS011;63488;48.092;-1.640;2024-01-07T00:39:20;8.07;;;3.60;;
74926;SDS011;63488;48.092;-1.640;2024-01-07T00:41:46;9.27;;;4.32;;
74926;SDS011;63488;48.092;-1.640;2024-01-07T00:44:11;7.00;;;3.80;;
74926;SDS011;63488;48.092;-1.640;2024-01-07T00:46:36;10.02;;;4.05;;
74926;SDS011;63488;48.092;-1.640;2024-01-07T00:49:02;8.00;;;4.65;;
74926;SDS011;63488;48.092;-1.640;2024-01-07T00:51:27;9.40;;;4.13;;
74926;SDS011;63488;48.092;-1.640;2024-01-07T00:53:53;6.28;;;4.20;;
74926;SDS011;63488;48.092;-1.640;2024-01-07T00:56:18;8.57;;;4.10;;
74926;SDS011;63488;48.092;-1.640;2024-01-07T00:58:43;6.70;;;3.83;;
74926;SDS011;63488;48.092;-1.640;2024-01-07T01:01:09;6.88;;;4.22;;
74926;SDS011;63488;48.092;-1.640;2024-01-07T01:03:34;6.18;;;3.88;;
74926;SDS011;63488;48.092;-1.640;2024-01-07T01:05:59;9.25;;;4.25;;
74926;SDS011;63488;48.092;-1.640;2024-01-07T01:08:25;8.10;;;3.92;;
74926;SDS011;63488;48.092;-1.640;2024-01-07T01:10:50;7.78;;;3.95;;
74926;SDS011;63488;48.092;-1.640;2024-01-07T01:13:15;6.82;;;3.83;;
74926;SDS011;63488;48.092;-1.640;2024-01-07T01:15:40;5.70;;;3.80;;
74926;SDS011;63488;48.092;-1.640;2024-01-07T01:18:06;6.40;;;3.40;;
74926;SDS011;63488;48.092;-1.640;2024-01-07T01:20:31;5.43;;;3.22;;
74926;SDS011;63488;48.092;-1.640;2024-01-07T01:22:56;5.55;;;2.92;;
74926;SDS011;63488;48.092;-1.640;2024-01-07T01:25:22;7.63;;;3.40;;
74926;SDS011;63488;48.092;-1.640;2024-01-07T01:27:47;7.78;;;3.13;;
74926;SDS011;63488;48.092;-1.640;2024-01-07T01:30:12;7.28;;;2.80;;
74926;SDS011;63488;48.092;-1.640;2024-01-07T01:32:39;6.10;;;2.78;;
74926;SDS011;63488;48.092;-1.640;2024-01-07T01:35:04;4.22;;;2.53;;
74926;SDS011;63488;48.092;-1.640;2024-01-07T01:37:30;5.65;;;2.53;;
74926;SDS011;63488;48.092;-1.640;2024-01-07T01:39:57;7.78;;;4.10;;
74926;SDS011;63488;48.092;-1.640;2024-01-07T01:42:23;6.18;;;3.65;;
74926;SDS011;63488;48.092;-1.640;2024-01-07T01:44:48;6.95;;;2.78;;
74926;SDS011;63488;48.092;-1.640;2024-01-07T01:47:13;7.78;;;2.90;;
74926;SDS011;63488;48.092;-1.640;2024-01-07T01:49:39;5.55;;;2.55;;
74926;SDS011;63488;48.092;-1.640;2024-01-07T01:52:04;6.63;;;2.67;;
74926;SDS011;63488;48.092;-1.640;2024-01-07T01:54:30;5.30;;;2.75;;
74926;SDS011;63488;48.092;-1.640;2024-01-07T01:56:55;5.10;;;2.50;;
74926;SDS011;63488;48.092;-1.640;2024-01-07T01:59:21;4.45;;;2.65;;
74926;SDS011;63488;48.092;-1.640;2024-01-07T02:01:47;6.15;;;2.88;;
74926;SDS011;63488;48.092;-1.640;2024-01-07T02:04:13;6.80;;;2.65;;
74926;SDS011;63488;48.092;-1.640;2024-01-07T02:06:39;6.30;;;2.88;;
74926;SDS011;63488;48.092;-1.640;2024-01-07T02:09:04;6.25;;;3.10;;
74926;SDS011;63488;48.092;-1.640;2024-01-07T02:11:30;6.03;;;2.58;;
74926;SDS011;63488;48.092;-1.640;2024-01-07T02:13:55;5.35;;;2.50;;
74926;SDS011;63488;48.092;-1.640;2024-01-07T02:16:20;6.20;;;2.50;;
74926;SDS011;63488;48.092;-1.640;2024-01-07T02:18:46;7.07;;;3.53;;
74926;SDS011;63488;48.092;-1.640;2024-01-07T02:21:12;7.55;;;3.40;;
74926;SDS011;63488;48.092;-1.640;2024-01-07T02:23:38;5.63;;;2.90;;
74926;SDS011;63488;48.092;-1.640;2024-01-07T02:26:03;7.03;;;2.90;;
74926;SDS011;63488;48.092;-1.640;2024-01-07T02:28:32;5.03;;;2.60;;
74926;SDS011;63488;48.092;-1.640;2024-01-07T02:30:58;4.68;;;2.80;;
74926;SDS011;63488;48.092;-1.640;2024-01-07T02:33:23;6.88;;;2.90;;
74926;SDS011;63488;48.092;-1.640;2024-01-07T02:35:49;5.85;;;2.40;;
74926;SDS011;63488;48.092;-1.640;2024-01-07T02:38:14;5.85;;;2.40;;
74926;SDS011;63488;48.092;-1.640;2024-01-07T02:40:39;6.00;;;2.72;;
74926;SDS011;63488;48.092;-1.640;2024-01-07T02:43:05;6.80;;;2.90;;
74926;SDS011;63488;48.092;-1.640;2024-01-07T02:45:30;5.13;;;2.78;;
74926;SDS011;63488;48.092;-1.640;2024-01-07T02:47:55;5.72;;;2.70;;
74926;SDS011;63488;48.092;-1.640;2024-01-07T02:50:21;7.97;;;2.47;;
74926;SDS011;63488;48.092;-1.640;2024-01-07T02:52:46;5.30;;;2.90;;
74926;SDS011;63488;48.092;-1.640;2024-01-07T02:55:11;7.38;;;2.97;;
74926;SDS011;63488;48.092;-1.640;2024-01-07T02:57:37;8.77;;;2.95;;
74926;SDS011;63488;48.092;-1.640;2024-01-07T03:00:02;7.00;;;3.03;;
74926;SDS011;63488;48.092;-1.640;2024-01-07T03:02:29;4.68;;;2.60;;
74926;SDS011;63488;48.092;-1.640;2024-01-07T03:04:55;3.92;;;2.55;;
74926;SDS011;63488;48.092;-1.640;2024-01-07T03:07:20;4.45;;;2.78;;
74926;SDS011;63488;48.092;-1.640;2024-01-07T03:09:45;4.80;;;2.63;;
74926;SDS011;63488;48.092;-1.640;2024-01-07T03:12:11;4.25;;;2.42;;
74926;SDS011;63488;48.092;-1.640;2024-01-07T03:14:36;4.22;;;2.63;;
74926;SDS011;63488;48.092;-1.640;2024-01-07T03:17:01;4.07;;;2.80;;
74926;SDS011;63488;48.092;-1.640;2024-01-07T03:19:27;7.07;;;2.95;;
74926;SDS011;63488;48.092;-1.640;2024-01-07T03:21:52;6.00;;;2.65;;
74926;SDS011;63488;48.092;-1.640;2024-01-07T03:24:17;5.88;;;3.10;;
74926;SDS011;63488;48.092;-1.640;2024-01-07T03:26:42;8.20;;;2.92;;
74926;SDS011;63488;48.092;-1.640;2024-01-07T03:29:08;11.18;;;3.40;;
74926;SDS011;63488;48.092;-1.640;2024-01-07T03:31:33;5.00;;;2.47;;
74926;SDS011;63488;48.092;-1.640;2024-01-07T03:33:58;5.53;;;3.13;;
74926;SDS011;63488;48.092;-1.640;2024-01-07T03:36:24;7.18;;;2.80;;
74926;SDS011;63488;48.092;-1.640;2024-01-07T03:38:49;7.85;;;3.10;;
74926;SDS011;63488;48.092;-1.640;2024-01-07T03:41:18;8.02;;;3.25;;
74926;SDS011;63488;48.092;-1.640;2024-01-07T03:43:44;5.97;;;3.23;;
74926;SDS011;63488;48.092;-1.640;2024-01-07T03:46:09;7.47;;;3.22;;
74926;SDS011;63488;48.092;-1.640;2024-01-07T03:48:34;7.07;;;3.20;;
74926;SDS011;63488;48.092;-1.640;2024-01-07T03:51:00;6.45;;;3.30;;
74926;SDS011;63488;48.092;-1.640;2024-01-07T03:53:25;6.25;;;3.20;;
74926;SDS011;63488;48.092;-1.640;2024-01-07T03:55:50;5.93;;;3.10;;
74926;SDS011;63488;48.092;-1.640;2024-01-07T03:58:16;5.88;;;2.72;;
74926;SDS011;63488;48.092;-1.640;2024-01-07T04:00:41;7.43;;;3.00;;
74926;SDS011;63488;48.092;-1.640;2024-01-07T04:03:06;5.63;;;3.20;;
74926;SDS011;63488;48.092;-1.640;2024-01-07T04:05:32;4.93;;;2.63;;
74926;SDS011;63488;48.092;-1.640;2024-01-07T04:07:59;5.95;;;2.58;;
74926;SDS011;63488;48.092;-1.640;2024-01-07T04:10:25;5.47;;;2.65;;
74926;SDS011;63488;48.092;-1.640;2024-01-07T04:12:50;6.43;;;2.72;;
74926;SDS011;63488;48.092;-1.640;2024-01-07T04:15:15;6.75;;;2.88;;
74926;SDS011;63488;48.092;-1.640;2024-01-07T04:17:40;5.88;;;2.70;;
74926;SDS011;63488;48.092;-1.640;2024-01-07T04:20:06;6.10;;;2.65;;
74926;SDS011;63488;48.092;-1.640;2024-01-07T04:22:31;5.65;;;2.67;;
74926;SDS011;63488;48.092;-1.640;2024-01-07T04:24:57;7.05;;;2.88;;
74926;SDS011;63488;48.092;-1.640;2024-01-07T04:27:22;5.65;;;2.67;;
74926;SDS011;63488;48.092;-1.640;2024-01-07T04:29:48;4.60;;;2.58;;
74926;SDS011;63488;48.092;-1.640;2024-01-07T04:32:13;5.22;;;2.85;;
74926;SDS011;63488;48.092;-1.640;2024-01-07T04:34:39;5.50;;;2.30;;
74926;SDS011;63488;48.092;-1.640;2024-01-07T04:37:04;4.88;;;2.22;;
74926;SDS011;63488;48.092;-1.640;2024-01-07T04:39:29;4.85;;;2.25;;
74926;SDS011;63488;48.092;-1.640;2024-01-07T04:41:54;4.07;;;2.10;;
74926;SDS011;63488;48.092;-1.640;2024-01-07T04:44:20;5.82;;;2.47;;
74926;SDS011;63488;48.092;-1.640;2024-01-07T04:46:47;3.58;;;1.80;;
74926;SDS011;63488;48.092;-1.640;2024-01-07T04:49:12;5.07;;;1.92;;
74926;SDS011;63488;48.092;-1.640;2024-01-07T04:51:37;3.47;;;2.03;;
74926;SDS011;63488;48.092;-1.640;2024-01-07T04:54:03;4.35;;;1.95;;
74926;SDS011;63488;48.092;-1.640;2024-01-07T04:56:28;3.65;;;1.80;;
74926;SDS011;63488;48.092;-1.640;2024-01-07T04:58:53;4.20;;;1.95;;
74926;SDS011;63488;48.092;-1.640;2024-01-07T05:01:19;3.33;;;1.80;;
74926;SDS011;63488;48.092;-1.640;2024-01-07T05:03:44;6.07;;;1.80;;
74926;SDS011;63488;48.092;-1.640;2024-01-07T05:06:09;4.00;;;1.70;;
74926;SDS011;63488;48.092;-1.640;2024-01-07T05:08:37;5.25;;;1.75;;
74926;SDS011;63488;48.092;-1.640;2024-01-07T05:11:03;4.68;;;2.35;;
74926;SDS011;63488;48.092;-1.640;2024-01-07T05:13:28;6.25;;;1.75;;
74926;SDS011;63488;48.092;-1.640;2024-01-07T05:15:53;4.88;;;1.80;;
74926;SDS011;63488;48.092;-1.640;2024-01-07T05:18:22;4.15;;;1.75;;
74926;SDS011;63488;48.092;-1.640;2024-01-07T05:20:48;6.07;;;1.83;;
74926;SDS011;63488;48.092;-1.640;2024-01-07T05:23:13;6.38;;;2.10;;
74926;SDS011;63488;48.092;-1.640;2024-01-07T05:25:38;6.30;;;2.10;;
74926;SDS011;63488;48.092;-1.640;2024-01-07T05:28:04;4.85;;;1.70;;
74926;SDS011;63488;48.092;-1.640;2024-01-07T05:30:29;5.07;;;1.90;;
74926;SDS011;63488;48.092;-1.640;2024-01-07T05:32:55;3.30;;;1.88;;
74926;SDS011;63488;48.092;-1.640;2024-01-07T05:35:20;4.53;;;2.10;;
74926;SDS011;63488;48.092;-1.640;2024-01-07T05:37:45;4.50;;;1.88;;
74926;SDS011;63488;48.092;-1.640;2024-01-07T05:40:11;3.25;;;1.70;;
74926;SDS011;63488;48.092;-1.640;2024-01-07T05:42:36;7.45;;;1.90;;
74926;SDS011;63488;48.092;-1.640;2024-01-07T05:45:01;4.95;;;1.65;;
74926;SDS011;63488;48.092;-1.640;2024-01-07T05:47:28;3.08;;;1.55;;
74926;SDS011;63488;48.092;-1.640;2024-01-07T05:49:53;4.53;;;1.90;;
74926;SDS011;63488;48.092;-1.640;2024-01-07T05:52:18;5.00;;;1.80;;
74926;SDS011;63488;48.092;-1.640;2024-01-07T05:54:44;6.30;;;1.88;;
74926;SDS011;63488;48.092;-1.640;2024-01-07T05:57:10;5.47;;;1.70;;
74926;SDS011;63488;48.092;-1.640;2024-01-07T05:59:35;3.42;;;1.67;;
74926;SDS011;63488;48.092;-1.640;2024-01-07T06:02:01;3.40;;;1.75;;
74926;SDS011;63488;48.092;-1.640;2024-01-07T06:04:26;4.03;;;2.00;;
74926;SDS011;63488;48.092;-1.640;2024-01-07T06:06:52;6.43;;;2.20;;
74926;SDS011;63488;48.092;-1.640;2024-01-07T06:09:17;3.38;;;1.80;;
74926;SDS011;63488;48.092;-1.640;2024-01-07T06:11:43;6.45;;;2.05;;
74926;SDS011;63488;48.092;-1.640;2024-01-07T06:14:08;3.50;;;1.80;;
74926;SDS011;63488;48.092;-1.640;2024-01-07T06:16:33;3.13;;;1.77;;
74926;SDS011;63488;48.092;-1.640;2024-01-07T06:18:58;4.80;;;1.90;;
74926;SDS011;63488;48.092;-1.640;2024-01-07T06:21:24;3.78;;;1.90;;
74926;SDS011;63488;48.092;-1.640;2024-01-07T06:23:49;3.78;;;1.98;;
74926;SDS011;63488;48.092;-1.640;2024-01-07T06:26:15;4.25;;;2.20;;
74926;SDS011;63488;48.092;-1.640;2024-01-07T06:28:40;4.78;;;1.83;;
74926;SDS011;63488;48.092;-1.640;2024-01-07T06:31:05;3.47;;;1.88;;
74926;SDS011;63488;48.092;-1.640;2024-01-07T06:33:31;4.10;;;1.98;;
74926;SDS011;63488;48.092;-1.640;2024-01-07T06:35:56;5.05;;;1.98;;
74926;SDS011;63488;48.092;-1.640;2024-01-07T06:38:21;5.15;;;2.03;;
74926;SDS011;63488;48.092;-1.640;2024-01-07T06:40:47;4.38;;;2.20;;
74926;SDS011;63488;48.092;-1.640;2024-01-07T06:43:12;3.55;;;1.90;;
74926;SDS011;63488;48.092;-1.640;2024-01-07T06:45:37;3.53;;;1.95;;
74926;SDS011;63488;48.092;-1.640;2024-01-07T06:48:03;5.03;;;2.50;;
74926;SDS011;63488;48.092;-1.640;2024-01-07T06:50:28;7.10;;;2.22;;
74926;SDS011;63488;48.092;-1.640;2024-01-07T06:52:53;4.25;;;2.15;;
74926;SDS011;63488;48.092;-1.640;2024-01-07T06:55:19;4.32;;;2.50;;
74926;SDS011;63488;48.092;-1.640;2024-01-07T06:57:44;4.95;;;2.60;;
74926;SDS011;63488;48.092;-1.640;2024-01-07T07:00:09;6.35;;;3.03;;
74926;SDS011;63488;48.092;-1.640;2024-01-07T07:02:35;3.58;;;2.60;;
74926;SDS011;63488;48.092;-1.640;2024-01-07T07:05:00;4.20;;;2.15;;
74926;SDS011;63488;48.092;-1.640;2024-01-07T07:07:25;3.45;;;2.30;;
74926;SDS011;63488;48.092;-1.640;2024-01-07T07:09:51;3.50;;;2.80;;
74926;SDS011;63488;48.092;-1.640;2024-01-07T07:12:17;6.60;;;2.60;;
74926;SDS011;63488;48.092;-1.640;2024-01-07T07:14:43;3.72;;;2.28;;
74926;SDS011;63488;48.092;-1.640;2024-01-07T07:17:08;4.32;;;2.80;;
74926;SDS011;63488;48.092;-1.640;2024-01-07T07:19:33;4.40;;;2.55;;
74926;SDS011;63488;48.092;-1.640;2024-01-07T07:21:59;5.15;;;2.88;;
74926;SDS011;63488;48.092;-1.640;2024-01-07T07:24:24;4.97;;;2.80;;
74926;SDS011;63488;48.092;-1.640;2024-01-07T07:26:49;4.72;;;3.00;;
74926;SDS011;63488;48.092;-1.640;2024-01-07T07:29:15;4.85;;;3.00;;
74926;SDS011;63488;48.092;-1.640;2024-01-07T07:31:40;5.32;;;2.50;;
74926;SDS011;63488;48.092;-1.640;2024-01-07T07:34:05;3.22;;;2.40;;
74926;SDS011;63488;48.092;-1.640;2024-01-07T07:36:31;4.47;;;2.42;;
74926;SDS011;63488;48.092;-1.640;2024-01-07T07:38:57;4.22;;;2.67;;
74926;SDS011;63488;48.092;-1.640;2024-01-07T07:41:22;5.97;;;2.75;;
74926;SDS011;63488;48.092;-1.640;2024-01-07T07:43:47;3.65;;;2.63;;
74926;SDS011;63488;48.092;-1.640;2024-01-07T07:46:13;5.35;;;2.65;;
74926;SDS011;63488;48.092;-1.640;2024-01-07T07:48:38;4.65;;;2.70;;
74926;SDS011;63488;48.092;-1.640;2024-01-07T07:51:04;4.50;;;2.50;;
74926;SDS011;63488;48.092;-1.640;2024-01-07T07:53:29;4.22;;;2.53;;
74926;SDS011;63488;48.092;-1.640;2024-01-07T07:55:54;3.45;;;2.58;;
74926;SDS011;63488;48.092;-1.640;2024-01-07T07:58:20;3.95;;;2.83;;
74926;SDS011;63488;48.092;-1.640;2024-01-07T08:00:45;3.50;;;2.70;;
74926;SDS011;63488;48.092;-1.640;2024-01-07T08:03:10;4.55;;;2.95;;
74926;SDS011;63488;48.092;-1.640;2024-01-07T08:05:35;5.35;;;3.10;;
74926;SDS011;63488;48.092;-1.640;2024-01-07T08:08:01;6.13;;;3.00;;
74926;SDS011;63488;48.092;-1.640;2024-01-07T08:10:26;5.15;;;2.97;;
74926;SDS011;63488;48.092;-1.640;2024-01-07T08:12:53;4.75;;;3.10;;
74926;SDS011;63488;48.092;-1.640;2024-01-07T08:15:19;5.38;;;2.90;;
74926;SDS011;63488;48.092;-1.640;2024-01-07T08:17:44;4.93;;;3.00;;
74926;SDS011;63488;48.092;-1.640;2024-01-07T08:20:09;5.28;;;2.60;;
74926;SDS011;63488;48.092;-1.640;2024-01-07T08:22:35;4.35;;;2.40;;
74926;SDS011;63488;48.092;-1.640;2024-01-07T08:25:00;3.45;;;2.35;;
74926;SDS011;63488;48.092;-1.640;2024-01-07T08:27:26;4.82;;;2.35;;
74926;SDS011;63488;48.092;-1.640;2024-01-07T08:29:52;4.20;;;2.55;;
74926;SDS011;63488;48.092;-1.640;2024-01-07T08:32:17;4.20;;;2.40;;
74926;SDS011;63488;48.092;-1.640;2024-01-07T08:34:44;4.45;;;2.47;;
74926;SDS011;63488;48.092;-1.640;2024-01-07T08:37:09;4.03;;;2.22;;
74926;SDS011;63488;48.092;-1.640;2024-01-07T08:39:34;5.07;;;2.30;;
74926;SDS011;63488;48.092;-1.640;2024-01-07T08:42:00;5.97;;;2.78;;
74926;SDS011;63488;48.092;-1.640;2024-01-07T08:44:25;4.57;;;2.85;;
74926;SDS011;63488;48.092;-1.640;2024-01-07T08:46:50;3.55;;;2.50;;
74926;SDS011;63488;48.092;-1.640;2024-01-07T08:49:16;3.58;;;2.53;;
74926;SDS011;63488;48.092;-1.640;2024-01-07T08:51:41;4.82;;;2.88;;
74926;SDS011;63488;48.092;-1.640;2024-01-07T08:54:06;5.43;;;2.60;;
74926;SDS011;63488;48.092;-1.640;2024-01-07T08:56:32;6.13;;;2.40;;
74926;SDS011;63488;48.092;-1.640;2024-01-07T08:58:57;5.57;;;2.30;;
74926;SDS011;63488;48.092;-1.640;2024-01-07T09:01:23;4.20;;;2.58;;
74926;SDS011;63488;48.092;-1.640;2024-01-07T09:03:49;4.30;;;2.20;;
74926;SDS011;63488;48.092;-1.640;2024-01-07T09:06:15;5.35;;;2.30;;
74926;SDS011;63488;48.092;-1.640;2024-01-07T09:08:40;2.90;;;2.03;;
74926;SDS011;63488;48.092;-1.640;2024-01-07T09:11:05;5.00;;;1.90;;
74926;SDS011;63488;48.092;-1.640;2024-01-07T09:13:32;3.33;;;2.00;;
74926;SDS011;63488;48.092;-1.640;2024-01-07T09:15:57;4.00;;;1.90;;
74926;SDS011;63488;48.092;-1.640;2024-01-07T09:18:22;4.70;;;2.38;;
74926;SDS011;63488;48.092;-1.640;2024-01-07T09:20:48;5.32;;;2.10;;
74926;SDS011;63488;48.092;-1.640;2024-01-07T09:23:13;3.65;;;1.98;;
74926;SDS011;63488;48.092;-1.640;2024-01-07T09:25:40;3.97;;;1.88;;
74926;SDS011;63488;48.092;-1.640;2024-01-07T09:28:06;3.95;;;2.20;;
74926;SDS011;63488;48.092;-1.640;2024-01-07T09:30:31;4.45;;;1.67;;
74926;SDS011;63488;48.092;-1.640;2024-01-07T09:32:57;3.35;;;1.88;;
74926;SDS011;63488;48.092;-1.640;2024-01-07T09:35:22;3.25;;;1.70;;
74926;SDS011;63488;48.092;-1.640;2024-01-07T09:37:48;4.63;;;1.77;;
74926;SDS011;63488;48.092;-1.640;2024-01-07T09:40:17;5.95;;;2.05;;
74926;SDS011;63488;48.092;-1.640;2024-01-07T09:45:08;5.20;;;2.07;;
74926;SDS011;63488;48.092;-1.640;2024-01-07T09:47:37;5.75;;;1.75;;
74926;SDS011;63488;48.092;-1.640;2024-01-07T09:50:03;4.70;;;1.70;;
74926;SDS011;63488;48.092;-1.640;2024-01-07T09:52:30;5.55;;;1.75;;
74926;SDS011;63488;48.092;-1.640;2024-01-07T09:54:58;2.80;;;1.35;;
74926;SDS011;63488;48.092;-1.640;2024-01-07T09:57:24;9.68;;;2.10;;
74926;SDS011;63488;48.092;-1.640;2024-01-07T09:59:50;4.18;;;1.48;;
74926;SDS011;63488;48.092;-1.640;2024-01-07T10:02:15;6.10;;;2.00;;
74926;SDS011;63488;48.092;-1.640;2024-01-07T10:04:41;5.65;;;2.05;;
74926;SDS011;63488;48.092;-1.640;2024-01-07T10:07:06;3.97;;;1.40;;
74926;SDS011;63488;48.092;-1.640;2024-01-07T10:09:33;4.97;;;1.73;;
74926;SDS011;63488;48.092;-1.640;2024-01-07T10:11:58;6.07;;;1.60;;
74926;SDS011;63488;48.092;-1.640;2024-01-07T10:14:24;4.72;;;1.50;;
74926;SDS011;63488;48.092;-1.640;2024-01-07T10:16:51;5.43;;;1.42;;
74926;SDS011;63488;48.092;-1.640;2024-01-07T10:19:23;6.60;;;1.50;;
74926;SDS011;63488;48.092;-1.640;2024-01-07T10:22:04;3.33;;;1.17;;
74926;SDS011;63488;48.092;-1.640;2024-01-07T10:24:36;5.57;;;1.67;;
74926;SDS011;63488;48.092;-1.640;2024-01-07T10:27:05;4.93;;;1.52;;
74926;SDS011;63488;48.092;-1.640;2024-01-07T10:29:31;2.95;;;1.08;;
74926;SDS011;63488;48.092;-1.640;2024-01-07T10:31:59;5.95;;;1.40;;
74926;SDS011;63488;48.092;-1.640;2024-01-07T10:34:28;5.38;;;1.40;;
74926;SDS011;63488;48.092;-1.640;2024-01-07T10:36:54;3.17;;;1.42;;
74926;SDS011;63488;48.092;-1.640;2024-01-07T10:39:21;3.65;;;1.30;;
74926;SDS011;63488;48.092;-1.640;2024-01-07T10:41:46;6.18;;;1.52;;
74926;SDS011;63488;48.092;-1.640;2024-01-07T10:44:12;6.10;;;1.30;;
74926;SDS011;63488;48.092;-1.640;2024-01-07T10:46:38;5.10;;;1.20;;
74926;SDS011;63488;48.092;-1.640;2024-01-07T10:49:05;4.07;;;1.23;;
74926;SDS011;63488;48.092;-1.640;2024-01-07T10:51:34;4.72;;;1.55;;
74926;SDS011;63488;48.092;-1.640;2024-01-07T10:53:59;5.93;;;1.60;;
74926;SDS011;63488;48.092;-1.640;2024-01-07T10:56:25;6.68;;;1.20;;
74926;SDS011;63488;48.092;-1.640;2024-01-07T10:58:53;4.40;;;1.15;;
74926;SDS011;63488;48.092;-1.640;2024-01-07T11:01:19;4.18;;;1.30;;
74926;SDS011;63488;48.092;-1.640;2024-01-07T11:03:47;3.67;;;1.10;;
74926;SDS011;63488;48.092;-1.640;2024-01-07T11:11:09;4.20;;;1.20;;
74926;SDS011;63488;48.092;-1.640;2024-01-07T11:16:06;5.63;;;1.20;;
74926;SDS011;63488;48.092;-1.640;2024-01-07T11:18:37;5.53;;;1.30;;
74926;SDS011;63488;48.092;-1.640;2024-01-07T11:21:03;5.18;;;1.30;;
74926;SDS011;63488;48.092;-1.640;2024-01-07T11:26:05;6.47;;;2.00;;
74926;SDS011;63488;48.092;-1.640;2024-01-07T11:28:51;5.10;;;1.73;;
74926;SDS011;63488;48.092;-1.640;2024-01-07T11:31:16;5.22;;;1.30;;
74926;SDS011;63488;48.092;-1.640;2024-01-07T11:33:43;2.97;;;0.93;;
74926;SDS011;63488;48.092;-1.640;2024-01-07T11:36:10;4.60;;;1.58;;
74926;SDS011;63488;48.092;-1.640;2024-01-07T11:38:35;5.78;;;1.77;;
74926;SDS011;63488;48.092;-1.640;2024-01-07T11:41:04;6.95;;;1.75;;
74926;SDS011;63488;48.092;-1.640;2024-01-07T11:43:30;6.82;;;1.48;;
74926;SDS011;63488;48.092;-1.640;2024-01-07T11:45:56;6.80;;;2.20;;
74926;SDS011;63488;48.092;-1.640;2024-01-07T11:48:21;3.83;;;1.23;;
74926;SDS011;63488;48.092;-1.640;2024-01-07T11:50:46;3.60;;;1.13;;
74926;SDS011;63488;48.092;-1.640;2024-01-07T11:53:12;4.00;;;1.33;;
74926;SDS011;63488;48.092;-1.640;2024-01-07T11:55:37;3.85;;;1.35;;
74926;SDS011;63488;48.092;-1.640;2024-01-07T11:58:03;2.20;;;1.20;;
74926;SDS011;63488;48.092;-1.640;2024-01-07T12:00:32;5.13;;;1.05;;
74926;SDS011;63488;48.092;-1.640;2024-01-07T12:02:58;4.75;;;1.08;;
74926;SDS011;63488;48.092;-1.640;2024-01-07T12:05:24;3.08;;;1.00;;
74926;SDS011;63488;48.092;-1.640;2024-01-07T12:07:49;4.10;;;0.98;;
74926;SDS011;63488;48.092;-1.640;2024-01-07T12:10:14;4.13;;;1.08;;
74926;SDS011;63488;48.092;-1.640;2024-01-07T12:12:40;2.65;;;0.88;;
74926;SDS011;63488;48.092;-1.640;2024-01-07T12:15:07;8.68;;;1.40;;
74926;SDS011;63488;48.092;-1.640;2024-01-07T12:17:32;3.72;;;1.00;;
74926;SDS011;63488;48.092;-1.640;2024-01-07T12:19:59;2.78;;;0.98;;
74926;SDS011;63488;48.092;-1.640;2024-01-07T12:22:26;6.90;;;1.35;;
74926;SDS011;63488;48.092;-1.640;2024-01-07T12:25:04;5.90;;;1.45;;
74926;SDS011;63488;48.092;-1.640;2024-01-07T12:27:29;4.65;;;1.10;;
74926;SDS011;63488;48.092;-1.640;2024-01-07T12:29:57;2.28;;;0.90;;
74926;SDS011;63488;48.092;-1.640;2024-01-07T12:32:23;4.72;;;1.50;;
74926;SDS011;63488;48.092;-1.640;2024-01-07T12:34:51;4.38;;;1.50;;
74926;SDS011;63488;48.092;-1.640;2024-01-07T12:37:16;5.10;;;1.35;;
74926;SDS011;63488;48.092;-1.640;2024-01-07T12:39:42;4.40;;;1.40;;
74926;SDS011;63488;48.092;-1.640;2024-01-07T12:42:07;5.07;;;1.40;;
74926;SDS011;63488;48.092;-1.640;2024-01-07T12:44:33;5.25;;;1.45;;
74926;SDS011;63488;48.092;-1.640;2024-01-07T12:46:58;4.35;;;1.20;;
74926;SDS011;63488;48.092;-1.640;2024-01-07T12:49:24;3.83;;;0.80;;
74926;SDS011;63488;48.092;-1.640;2024-01-07T12:51:49;2.95;;;1.13;;
74926;SDS011;63488;48.092;-1.640;2024-01-07T12:54:14;4.57;;;0.98;;
74926;SDS011;63488;48.092;-1.640;2024-01-07T12:56:39;2.47;;;0.90;;
74926;SDS011;63488;48.092;-1.640;2024-01-07T12:59:05;3.45;;;1.20;;
74926;SDS011;63488;48.092;-1.640;2024-01-07T13:01:30;5.55;;;2.03;;
74926;SDS011;63488;48.092;-1.640;2024-01-07T13:03:56;4.47;;;1.25;;
74926;SDS011;63488;48.092;-1.640;2024-01-07T13:06:21;6.20;;;1.30;;
74926;SDS011;63488;48.092;-1.640;2024-01-07T13:08:46;4.63;;;1.42;;
74926;SDS011;63488;48.092;-1.640;2024-01-07T13:11:12;2.63;;;0.93;;
74926;SDS011;63488;48.092;-1.640;2024-01-07T13:13:39;3.47;;;1.00;;
74926;SDS011;63488;48.092;-1.640;2024-01-07T13:16:06;3.45;;;1.10;;
74926;SDS011;63488;48.092;-1.640;2024-01-07T13:18:31;2.47;;;1.00;;
74926;SDS011;63488;48.092;-1.640;2024-01-07T13:20:56;2.63;;;1.10;;
74926;SDS011;63488;48.092;-1.640;2024-01-07T13:23:22;2.00;;;1.00;;
74926;SDS011;63488;48.092;-1.640;2024-01-07T13:25:47;2.85;;;1.00;;
74926;SDS011;63488;48.092;-1.640;2024-01-07T13:28:12;3.30;;;1.08;;
74926;SDS011;63488;48.092;-1.640;2024-01-07T13:30:38;3.35;;;1.08;;
74926;SDS011;63488;48.092;-1.640;2024-01-07T13:33:05;3.05;;;0.80;;
74926;SDS011;63488;48.092;-1.640;2024-01-07T13:35:30;2.92;;;0.98;;
74926;SDS011;63488;48.092;-1.640;2024-01-07T13:37:55;2.47;;;0.95;;
74926;SDS011;63488;48.092;-1.640;2024-01-07T13:40:21;3.95;;;1.08;;
74926;SDS011;63488;48.092;-1.640;2024-01-07T13:42:46;3.67;;;1.02;;
74926;SDS011;63488;48.092;-1.640;2024-01-07T13:45:15;4.00;;;0.90;;
74926;SDS011;63488;48.092;-1.640;2024-01-07T13:47:41;2.88;;;0.85;;
74926;SDS011;63488;48.092;-1.640;2024-01-07T13:50:07;3.05;;;1.23;;
74926;SDS011;63488;48.092;-1.640;2024-01-07T13:52:34;5.45;;;1.10;;
74926;SDS011;63488;48.092;-1.640;2024-01-07T13:55:00;4.63;;;1.23;;
74926;SDS011;63488;48.092;-1.640;2024-01-07T13:57:25;2.88;;;1.40;;
74926;SDS011;63488;48.092;-1.640;2024-01-07T13:59:50;5.63;;;1.40;;
74926;SDS011;63488;48.092;-1.640;2024-01-07T14:02:16;4.90;;;1.55;;
74926;SDS011;63488;48.092;-1.640;2024-01-07T14:04:44;3.45;;;1.10;;
74926;SDS011;63488;48.092;-1.640;2024-01-07T14:07:09;5.07;;;0.98;;
74926;SDS011;63488;48.092;-1.640;2024-01-07T14:09:35;3.10;;;0.98;;
74926;SDS011;63488;48.092;-1.640;2024-01-07T14:12:00;4.43;;;1.20;;
74926;SDS011;63488;48.092;-1.640;2024-01-07T14:14:27;3.15;;;1.17;;
74926;SDS011;63488;48.092;-1.640;2024-01-07T14:16:52;2.88;;;1.00;;
74926;SDS011;63488;48.092;-1.640;2024-01-07T14:19:18;3.78;;;1.10;;
74926;SDS011;63488;48.092;-1.640;2024-01-07T14:21:43;2.60;;;1.20;;
74926;SDS011;63488;48.092;-1.640;2024-01-07T14:24:08;3.28;;;1.10;;
74926;SDS011;63488;48.092;-1.640;2024-01-07T14:26:34;5.32;;;1.25;;
74926;SDS011;63488;48.092;-1.640;2024-01-07T14:28:59;5.03;;;1.00;;
74926;SDS011;63488;48.092;-1.640;2024-01-07T14:31:24;4.25;;;1.20;;
74926;SDS011;63488;48.092;-1.640;2024-01-07T14:33:50;4.88;;;0.93;;
74926;SDS011;63488;48.092;-1.640;2024-01-07T14:36:15;3.53;;;0.80;;